createdAt,value
2022-08-26T00:00:03.128Z,8.30
2022-08-26T00:01:03.360Z,8.50
2022-08-26T00:02:03.667Z,8.50
2022-08-26T00:03:03.845Z,8.00
2022-08-26T00:04:03.965Z,8.30
2022-08-26T00:05:04.227Z,8.40
2022-08-26T00:06:04.402Z,8.20
2022-08-26T00:07:05.279Z,8.00
2022-08-26T00:08:04.927Z,8.20
2022-08-26T00:09:05.142Z,8.10
2022-08-26T00:10:05.401Z,7.90
2022-08-26T00:11:05.657Z,8.40
2022-08-26T00:12:05.929Z,8.30
2022-08-26T00:13:06.217Z,8.00
2022-08-26T00:14:06.235Z,8.30
2022-08-26T00:15:06.478Z,7.60
2022-08-26T00:16:06.715Z,8.20
2022-08-26T00:17:08.632Z,8.50
2022-08-26T00:18:21.763Z,8.30
2022-08-26T00:19:08.344Z,7.70
2022-08-26T00:20:07.552Z,8.70
2022-08-26T00:21:07.771Z,8.30
2022-08-26T00:22:08.006Z,7.80
2022-08-26T00:23:08.402Z,8.10
2022-08-26T00:24:08.487Z,8.30
2022-08-26T00:25:08.781Z,8.30
2022-08-26T00:26:08.952Z,8.60
2022-08-26T00:27:09.214Z,8.30
2022-08-26T00:28:09.357Z,8.30
2022-08-26T00:29:09.602Z,8.40
2022-08-26T00:30:09.833Z,7.80
2022-08-26T00:31:11.119Z,7.80
2022-08-26T00:32:10.333Z,7.70
2022-08-26T00:33:10.807Z,7.80
2022-08-26T00:34:11.288Z,7.80
2022-08-26T00:35:11.102Z,7.50
2022-08-26T00:36:14.440Z,7.50
2022-08-26T00:37:16.170Z,7.70
2022-08-26T00:38:11.845Z,8.00
2022-08-26T00:39:12.058Z,8.10
2022-08-26T00:40:12.281Z,8.20
2022-08-26T00:41:12.504Z,7.90
2022-08-26T00:42:12.724Z,8.30
2022-08-26T00:43:12.957Z,8.10
2022-08-26T00:44:13.184Z,9.00
2022-08-26T00:45:13.402Z,8.10
2022-08-26T00:46:13.658Z,8.50
2022-08-26T00:47:13.939Z,8.20
2022-08-26T00:48:14.153Z,8.00
2022-08-26T00:49:14.371Z,8.40
2022-08-26T00:50:14.636Z,8.00
2022-08-26T00:51:14.866Z,7.90
2022-08-26T00:52:15.366Z,8.40
2022-08-26T00:53:15.262Z,8.20
2022-08-26T00:54:15.478Z,8.30
2022-08-26T00:55:20.169Z,7.70
2022-08-26T00:56:15.926Z,8.60
2022-08-26T00:57:16.713Z,8.70
2022-08-26T00:58:16.421Z,8.10
2022-08-26T00:59:17.619Z,7.60
2022-08-26T01:00:16.877Z,8.10
2022-08-26T01:01:17.161Z,7.90
2022-08-26T01:02:21.120Z,8.00
2022-08-26T01:03:17.541Z,8.10
2022-08-26T01:04:17.758Z,8.00
2022-08-26T01:05:18.034Z,8.10
2022-08-26T01:06:18.290Z,7.80
2022-08-26T01:07:18.517Z,7.80
2022-08-26T01:08:18.716Z,7.80
2022-08-26T01:09:18.919Z,8.30
2022-08-26T01:10:19.125Z,7.80
2022-08-26T01:11:19.335Z,8.00
2022-08-26T01:12:21.959Z,8.10
2022-08-26T01:13:20.092Z,8.10
2022-08-26T01:14:20.232Z,7.80
2022-08-26T01:15:20.250Z,8.00
2022-08-26T01:16:20.491Z,7.80
2022-08-26T01:17:20.702Z,8.10
2022-08-26T01:18:20.909Z,7.70
2022-08-26T01:19:21.119Z,8.10
2022-08-26T01:20:21.321Z,8.40
2022-08-26T01:21:21.531Z,8.20
2022-08-26T01:22:21.762Z,8.10
2022-08-26T01:23:22.936Z,8.10
2022-08-26T01:24:22.186Z,7.50
2022-08-26T01:25:22.392Z,7.60
2022-08-26T01:26:22.588Z,8.00
2022-08-26T01:27:22.873Z,8.10
2022-08-26T01:28:23.106Z,7.70
2022-08-26T01:29:23.329Z,7.90
2022-08-26T01:30:23.566Z,7.70
2022-08-26T01:31:23.850Z,8.60
2022-08-26T01:32:24.070Z,8.30
2022-08-26T01:33:24.294Z,7.80
2022-08-26T01:34:24.504Z,7.90
2022-08-26T01:35:24.689Z,8.00
2022-08-26T01:36:24.891Z,8.00
2022-08-26T01:37:25.130Z,7.80
2022-08-26T01:38:25.328Z,8.70
2022-08-26T01:39:25.559Z,7.40
2022-08-26T01:40:25.781Z,8.00
2022-08-26T01:41:27.578Z,7.80
2022-08-26T01:42:26.251Z,8.50
2022-08-26T01:43:26.472Z,8.10
2022-08-26T01:44:26.689Z,8.10
2022-08-26T01:45:26.946Z,7.90
2022-08-26T01:46:27.152Z,8.20
2022-08-26T01:47:27.379Z,8.20
2022-08-26T01:48:27.561Z,8.40
2022-08-26T01:49:27.791Z,8.30
2022-08-26T01:50:30.200Z,7.90
2022-08-26T01:51:28.188Z,8.30
2022-08-26T01:52:28.470Z,8.30
2022-08-26T01:53:28.639Z,8.60
2022-08-26T01:54:28.891Z,8.20
2022-08-26T01:55:33.062Z,8.50
2022-08-26T01:56:33.259Z,8.30
2022-08-26T01:57:30.540Z,8.10
2022-08-26T01:58:29.738Z,8.30
2022-08-26T01:59:29.941Z,8.50
2022-08-26T02:00:30.146Z,7.90
2022-08-26T02:01:30.361Z,8.30
2022-08-26T02:02:30.596Z,8.00
2022-08-26T02:03:30.827Z,8.20
2022-08-26T02:04:31.067Z,8.60
2022-08-26T02:05:31.258Z,8.40
2022-08-26T02:06:31.482Z,8.00
2022-08-26T02:07:31.694Z,8.20
2022-08-26T02:08:31.907Z,8.10
2022-08-26T02:09:32.109Z,9.20
2022-08-26T02:10:33.272Z,8.40
2022-08-26T02:11:32.469Z,8.30
2022-08-26T02:12:32.745Z,8.60
2022-08-26T02:13:32.937Z,8.40
2022-08-26T02:14:33.150Z,8.10
2022-08-26T02:15:33.378Z,8.00
2022-08-26T02:16:33.655Z,8.30
2022-08-26T02:17:33.921Z,8.30
2022-08-26T02:18:34.083Z,8.20
2022-08-26T02:19:34.341Z,8.50
2022-08-26T02:20:34.564Z,8.20
2022-08-26T02:21:34.778Z,7.90
2022-08-26T02:22:35.076Z,8.40
2022-08-26T02:23:35.296Z,8.20
2022-08-26T02:24:35.510Z,8.30
2022-08-26T02:25:35.720Z,8.90
2022-08-26T02:26:35.938Z,9.00
2022-08-26T02:27:36.179Z,8.10
2022-08-26T02:28:36.396Z,9.00
2022-08-26T02:29:36.618Z,8.60
2022-08-26T02:30:36.790Z,8.40
2022-08-26T02:31:37.144Z,8.50
2022-08-26T02:32:37.276Z,9.00
2022-08-26T02:33:37.529Z,9.00
2022-08-26T02:34:38.690Z,8.20
2022-08-26T02:35:37.904Z,9.40
2022-08-26T02:36:38.090Z,8.70
2022-08-26T02:37:38.289Z,8.30
2022-08-26T02:38:38.515Z,9.10
2022-08-26T02:39:38.695Z,9.00
2022-08-26T02:40:38.904Z,8.70
2022-08-26T02:41:45.156Z,8.90
2022-08-26T02:42:40.312Z,9.50
2022-08-26T02:43:39.529Z,9.00
2022-08-26T02:44:39.748Z,8.50
2022-08-26T02:45:39.970Z,8.80
2022-08-26T02:46:40.223Z,8.40
2022-08-26T02:47:40.401Z,8.90
2022-08-26T02:48:40.570Z,8.40
2022-08-26T02:49:40.790Z,8.80
2022-08-26T02:50:40.984Z,9.20
2022-08-26T02:51:41.291Z,9.10
2022-08-26T02:52:41.526Z,9.30
2022-08-26T02:53:41.754Z,9.70
2022-08-26T02:54:41.928Z,8.90
2022-08-26T02:55:42.160Z,9.20
2022-08-26T02:56:42.377Z,8.70
2022-08-26T02:57:42.619Z,9.40
2022-08-26T02:58:42.838Z,9.10
2022-08-26T02:59:43.049Z,9.00
2022-08-26T03:00:52.845Z,9.50
2022-08-26T03:01:44.577Z,9.40
2022-08-26T03:02:43.791Z,9.40
2022-08-26T03:03:43.998Z,9.40
2022-08-26T03:04:58.118Z,9.10
2022-08-26T03:05:45.499Z,10.40
2022-08-26T03:06:47.044Z,10.00
2022-08-26T03:07:45.919Z,9.40
2022-08-26T03:08:45.131Z,9.40
2022-08-26T03:09:45.343Z,8.90
2022-08-26T03:10:45.539Z,9.70
2022-08-26T03:11:45.778Z,9.60
2022-08-26T03:12:47.309Z,9.10
2022-08-26T03:13:46.279Z,9.40
2022-08-26T03:14:46.494Z,9.40
2022-08-26T03:15:47.705Z,9.20
2022-08-26T03:16:48.478Z,10.10
2022-08-26T03:17:47.181Z,10.10
2022-08-26T03:18:52.251Z,9.60
2022-08-26T03:19:52.914Z,8.90
2022-08-26T03:20:48.874Z,9.70
2022-08-26T03:21:48.056Z,9.20
2022-08-26T03:22:48.268Z,9.60
2022-08-26T03:23:48.427Z,9.70
2022-08-26T03:24:48.636Z,9.70
2022-08-26T03:25:48.864Z,9.10
2022-08-26T03:26:52.572Z,9.40
2022-08-26T03:27:49.288Z,9.90
2022-08-26T03:28:49.510Z,9.50
2022-08-26T03:29:49.758Z,9.70
2022-08-26T03:30:50.007Z,9.80
2022-08-26T03:31:50.268Z,9.70
2022-08-26T03:32:50.448Z,9.10
2022-08-26T03:33:50.672Z,9.70
2022-08-26T03:34:50.873Z,9.90
2022-08-26T03:35:51.066Z,10.10
2022-08-26T03:36:51.297Z,9.50
2022-08-26T03:37:51.518Z,9.50
2022-08-26T03:38:51.742Z,9.60
2022-08-26T03:39:52.007Z,10.10
2022-08-26T03:40:52.236Z,10.00
2022-08-26T03:41:52.438Z,9.90
2022-08-26T03:42:52.721Z,10.20
2022-08-26T03:43:52.957Z,10.40
2022-08-26T03:44:53.198Z,10.40
2022-08-26T03:45:53.408Z,9.90
2022-08-26T03:46:53.661Z,9.90
2022-08-26T03:47:53.879Z,10.10
2022-08-26T03:48:54.107Z,10.00
2022-08-26T03:49:54.333Z,10.10
2022-08-26T03:50:54.566Z,10.40
2022-08-26T03:51:54.767Z,10.40
2022-08-26T03:52:54.992Z,10.10
2022-08-26T03:53:55.242Z,9.30
2022-08-26T03:54:55.441Z,10.50
2022-08-26T03:55:55.668Z,10.50
2022-08-26T03:56:55.887Z,10.20
2022-08-26T03:57:56.078Z,10.00
2022-08-26T03:58:56.289Z,9.80
2022-08-26T03:59:56.505Z,10.20
2022-08-26T04:00:56.780Z,10.10
2022-08-26T04:01:57.059Z,9.40
2022-08-26T04:02:57.338Z,10.00
2022-08-26T04:03:57.457Z,10.00
2022-08-26T04:04:57.731Z,10.40
2022-08-26T04:05:57.989Z,10.40
2022-08-26T04:06:58.214Z,10.40
2022-08-26T04:07:58.452Z,10.20
2022-08-26T04:08:58.672Z,10.80
2022-08-26T04:09:58.882Z,10.30
2022-08-26T04:10:59.118Z,10.70
2022-08-26T04:11:59.282Z,10.50
2022-08-26T04:12:59.523Z,10.60
2022-08-26T04:13:59.736Z,10.20
2022-08-26T04:14:59.967Z,10.60
2022-08-26T04:16:00.224Z,10.50
2022-08-26T04:17:00.420Z,10.90
2022-08-26T04:18:00.650Z,10.20
2022-08-26T04:19:00.880Z,11.00
2022-08-26T04:20:01.071Z,11.20
2022-08-26T04:21:01.304Z,10.10
2022-08-26T04:22:01.562Z,11.20
2022-08-26T04:23:01.815Z,10.70
2022-08-26T04:24:03.456Z,10.50
2022-08-26T04:25:02.269Z,10.90
2022-08-26T04:26:02.490Z,10.00
2022-08-26T04:27:09.715Z,10.50
2022-08-26T04:28:02.908Z,10.20
2022-08-26T04:29:04.774Z,10.00
2022-08-26T04:30:03.306Z,10.90
2022-08-26T04:31:03.599Z,10.30
2022-08-26T04:32:03.818Z,10.90
2022-08-26T04:33:04.074Z,10.60
2022-08-26T04:34:05.219Z,10.80
2022-08-26T04:35:04.591Z,10.30
2022-08-26T04:36:04.636Z,10.50
2022-08-26T04:37:04.811Z,10.00
2022-08-26T04:38:05.336Z,11.20
2022-08-26T04:39:05.289Z,11.00
2022-08-26T04:40:05.535Z,10.50
2022-08-26T04:41:05.750Z,10.20
2022-08-26T04:42:06.917Z,10.30
2022-08-26T04:43:06.286Z,10.60
2022-08-26T04:44:06.342Z,11.00
2022-08-26T04:45:10.146Z,10.70
2022-08-26T04:46:07.755Z,10.90
2022-08-26T04:47:06.942Z,11.20
2022-08-26T04:48:07.178Z,10.80
2022-08-26T04:49:07.387Z,11.00
2022-08-26T04:50:07.680Z,10.50
2022-08-26T04:51:07.916Z,11.00
2022-08-26T04:52:08.091Z,11.10
2022-08-26T04:53:08.541Z,11.20
2022-08-26T04:54:08.571Z,10.80
2022-08-26T04:55:08.850Z,10.70
2022-08-26T04:56:09.032Z,11.20
2022-08-26T04:57:09.292Z,10.70
2022-08-26T04:58:10.189Z,11.10
2022-08-26T04:59:17.141Z,10.40
2022-08-26T05:00:10.946Z,11.10
2022-08-26T05:01:10.409Z,10.40
2022-08-26T05:02:10.361Z,10.90
2022-08-26T05:03:10.804Z,10.90
2022-08-26T05:04:10.804Z,11.10
2022-08-26T05:05:11.075Z,10.60
2022-08-26T05:06:11.301Z,11.50
2022-08-26T05:07:11.502Z,11.20
2022-08-26T05:08:11.731Z,11.20
2022-08-26T05:09:11.949Z,10.70
2022-08-26T05:10:12.178Z,10.50
2022-08-26T05:11:12.361Z,10.60
2022-08-26T05:12:12.587Z,11.10
2022-08-26T05:13:15.376Z,11.00
2022-08-26T05:14:12.951Z,11.30
2022-08-26T05:15:13.167Z,10.40
2022-08-26T05:16:13.437Z,10.90
2022-08-26T05:17:14.874Z,10.60
2022-08-26T05:18:13.847Z,10.50
2022-08-26T05:19:14.057Z,10.30
2022-08-26T05:20:15.234Z,10.50
2022-08-26T05:21:14.447Z,10.50
2022-08-26T05:22:14.667Z,10.30
2022-08-26T05:23:14.940Z,10.80
2022-08-26T05:24:15.139Z,10.60
2022-08-26T05:25:15.364Z,11.10
2022-08-26T05:26:15.576Z,10.30
2022-08-26T05:27:15.746Z,10.50
2022-08-26T05:28:15.928Z,10.70
2022-08-26T05:29:16.156Z,10.40
2022-08-26T05:30:16.359Z,10.80
2022-08-26T05:31:16.656Z,10.90
2022-08-26T05:32:16.764Z,10.50
2022-08-26T05:33:17.018Z,10.80
2022-08-26T05:34:17.200Z,10.60
2022-08-26T05:35:17.396Z,10.90
2022-08-26T05:36:17.609Z,10.90
2022-08-26T05:37:17.835Z,10.30
2022-08-26T05:38:18.049Z,10.40
2022-08-26T05:39:18.255Z,11.20
2022-08-26T05:40:18.518Z,10.80
2022-08-26T05:41:18.705Z,10.20
2022-08-26T05:42:18.939Z,11.40
2022-08-26T05:43:19.186Z,10.30
2022-08-26T05:44:19.335Z,10.60
2022-08-26T05:45:19.573Z,10.70
2022-08-26T05:46:19.785Z,10.70
2022-08-26T05:47:20.010Z,10.60
2022-08-26T05:48:22.651Z,10.80
2022-08-26T05:49:20.369Z,11.00
2022-08-26T05:50:20.505Z,10.50
2022-08-26T05:51:25.337Z,10.50
2022-08-26T05:52:21.907Z,10.30
2022-08-26T05:53:21.107Z,10.70
2022-08-26T05:54:22.468Z,10.10
2022-08-26T05:55:21.535Z,10.50
2022-08-26T05:56:21.743Z,11.00
2022-08-26T05:57:23.137Z,10.50
2022-08-26T05:58:22.271Z,9.70
2022-08-26T05:59:24.509Z,10.60
2022-08-26T06:00:22.624Z,10.50
2022-08-26T06:01:24.122Z,10.60
2022-08-26T06:02:23.028Z,10.50
2022-08-26T06:03:23.188Z,10.60
2022-08-26T06:04:24.883Z,10.30
2022-08-26T06:05:23.595Z,10.60
2022-08-26T06:06:27.886Z,10.10
2022-08-26T06:07:25.078Z,10.10
2022-08-26T06:08:24.290Z,10.70
2022-08-26T06:09:24.505Z,9.90
2022-08-26T06:10:32.953Z,10.20
2022-08-26T06:11:25.975Z,10.00
2022-08-26T06:12:25.193Z,10.80
2022-08-26T06:13:25.426Z,9.70
2022-08-26T06:14:25.615Z,9.80
2022-08-26T06:15:25.804Z,9.90
2022-08-26T06:16:26.086Z,9.60
2022-08-26T06:17:26.245Z,9.80
2022-08-26T06:18:26.454Z,9.70
2022-08-26T06:19:32.665Z,10.00
2022-08-26T06:20:27.805Z,10.60
2022-08-26T06:21:26.999Z,9.50
2022-08-26T06:22:27.212Z,9.90
2022-08-26T06:23:27.365Z,10.00
2022-08-26T06:24:27.608Z,9.30
2022-08-26T06:25:27.793Z,9.40
2022-08-26T06:26:27.984Z,9.70
2022-08-26T06:27:32.153Z,9.40
2022-08-26T06:28:28.401Z,9.80
2022-08-26T06:29:28.606Z,9.80
2022-08-26T06:30:28.806Z,9.70
2022-08-26T06:31:29.056Z,10.00
2022-08-26T06:32:29.262Z,9.60
2022-08-26T06:33:29.415Z,9.20
2022-08-26T06:34:30.423Z,9.30
2022-08-26T06:35:29.813Z,10.50
2022-08-26T06:36:30.012Z,10.10
2022-08-26T06:37:31.195Z,10.20
2022-08-26T06:38:30.436Z,9.50
2022-08-26T06:39:31.307Z,9.20
2022-08-26T06:40:30.946Z,10.10
2022-08-26T06:41:31.032Z,9.80
2022-08-26T06:42:31.251Z,9.80
2022-08-26T06:43:31.448Z,8.90
2022-08-26T06:44:32.456Z,9.40
2022-08-26T06:45:31.932Z,9.90
2022-08-26T06:46:32.079Z,9.30
2022-08-26T06:47:32.172Z,9.90
2022-08-26T06:48:33.175Z,9.80
2022-08-26T06:49:33.516Z,9.70
2022-08-26T06:50:32.691Z,9.60
2022-08-26T06:51:32.934Z,9.30
2022-08-26T06:52:33.211Z,9.30
2022-08-26T06:53:34.436Z,9.10
2022-08-26T06:54:33.611Z,9.30
2022-08-26T06:55:33.784Z,9.50
2022-08-26T06:56:34.003Z,9.70
2022-08-26T06:57:34.829Z,8.70
2022-08-26T06:58:34.301Z,9.10
2022-08-26T06:59:34.612Z,8.90
2022-08-26T07:00:34.687Z,9.20
2022-08-26T07:01:34.943Z,9.10
2022-08-26T07:02:35.113Z,9.70
2022-08-26T07:03:39.625Z,10.40
2022-08-26T07:04:36.223Z,9.10
2022-08-26T07:05:35.508Z,9.00
2022-08-26T07:06:35.671Z,8.80
2022-08-26T07:07:35.857Z,9.10
2022-08-26T07:08:36.082Z,8.80
2022-08-26T07:09:36.243Z,8.60
2022-08-26T07:10:36.469Z,9.40
2022-08-26T07:11:36.642Z,8.90
2022-08-26T07:12:36.822Z,9.00
2022-08-26T07:13:37.003Z,8.90
2022-08-26T07:14:37.177Z,9.20
2022-08-26T07:15:37.384Z,9.00
2022-08-26T07:16:37.515Z,8.20
2022-08-26T07:17:38.692Z,8.60
2022-08-26T07:18:37.901Z,7.90
2022-08-26T07:19:38.053Z,8.50
2022-08-26T07:20:38.234Z,8.30
2022-08-26T07:21:38.416Z,9.00
2022-08-26T07:22:38.617Z,8.30
2022-08-26T07:23:38.837Z,9.00
2022-08-26T07:24:38.987Z,8.30
2022-08-26T07:25:39.219Z,8.40
2022-08-26T07:26:42.955Z,8.20
2022-08-26T07:27:39.478Z,8.70
2022-08-26T07:28:39.668Z,8.60
2022-08-26T07:29:39.828Z,8.70
2022-08-26T07:30:40.102Z,8.10
2022-08-26T07:31:42.275Z,7.80
2022-08-26T07:32:40.358Z,7.60
2022-08-26T07:33:40.546Z,8.00
2022-08-26T07:34:40.712Z,8.10
2022-08-26T07:35:40.846Z,8.00
2022-08-26T07:36:41.024Z,8.60
2022-08-26T07:37:41.180Z,8.00
2022-08-26T07:38:41.370Z,8.60
2022-08-26T07:39:41.520Z,8.30
2022-08-26T07:40:41.674Z,8.10
2022-08-26T07:41:41.806Z,8.30
2022-08-26T07:42:41.961Z,8.10
2022-08-26T07:43:42.135Z,7.90
2022-08-26T07:44:42.303Z,7.80
2022-08-26T07:45:42.567Z,8.20
2022-08-26T07:46:42.548Z,8.00
2022-08-26T07:47:42.757Z,7.90
2022-08-26T07:48:46.143Z,7.50
2022-08-26T07:49:43.069Z,7.80
2022-08-26T07:50:48.841Z,7.50
2022-08-26T07:51:44.268Z,7.40
2022-08-26T07:52:43.465Z,7.50
2022-08-26T07:53:43.587Z,8.00
2022-08-26T07:54:43.653Z,7.90
2022-08-26T07:55:43.815Z,7.30
2022-08-26T07:56:44.283Z,8.00
2022-08-26T07:57:44.140Z,7.10
2022-08-26T07:58:46.652Z,7.40
2022-08-26T07:59:44.450Z,7.40
2022-08-26T08:00:44.617Z,7.80
2022-08-26T08:01:45.374Z,8.00
2022-08-26T08:02:44.828Z,7.40
2022-08-26T08:03:44.975Z,7.30
2022-08-26T08:04:45.167Z,7.90
2022-08-26T08:05:46.370Z,7.40
2022-08-26T08:06:45.358Z,7.20
2022-08-26T08:07:45.653Z,7.40
2022-08-26T08:08:45.663Z,7.60
2022-08-26T08:09:45.820Z,7.80
2022-08-26T08:10:48.845Z,7.60
2022-08-26T08:11:46.085Z,7.90
2022-08-26T08:12:46.254Z,7.60
2022-08-26T08:13:46.414Z,7.90
2022-08-26T08:14:46.557Z,7.40
2022-08-26T08:15:46.691Z,8.20
2022-08-26T08:16:50.983Z,8.30
2022-08-26T08:17:47.856Z,8.60
2022-08-26T08:18:47.025Z,8.00
2022-08-26T08:19:47.192Z,8.00
2022-08-26T08:20:59.290Z,7.50
2022-08-26T08:21:48.452Z,7.90
2022-08-26T08:22:47.550Z,7.20
2022-08-26T08:23:47.706Z,7.60
2022-08-26T08:24:50.028Z,8.60
2022-08-26T08:25:48.941Z,8.00
2022-08-26T08:26:48.072Z,7.60
2022-08-26T08:27:48.213Z,7.40
2022-08-26T08:28:48.388Z,7.40
2022-08-26T08:29:48.542Z,7.50
2022-08-26T08:30:48.739Z,7.70
2022-08-26T08:31:57.935Z,7.30
2022-08-26T08:32:49.944Z,7.40
2022-08-26T08:33:49.114Z,7.50
2022-08-26T08:34:49.227Z,7.20
2022-08-26T08:35:49.354Z,7.40
2022-08-26T08:36:49.486Z,7.50
2022-08-26T08:37:49.608Z,7.10
2022-08-26T08:38:49.753Z,6.90
2022-08-26T08:39:49.950Z,6.90
2022-08-26T08:40:49.986Z,6.70
2022-08-26T08:41:50.101Z,7.40
2022-08-26T08:42:50.186Z,7.10
2022-08-26T08:43:50.310Z,7.20
2022-08-26T08:44:51.941Z,6.80
2022-08-26T08:45:50.575Z,7.10
2022-08-26T08:46:50.674Z,6.40
2022-08-26T08:47:50.796Z,7.00
2022-08-26T08:48:50.867Z,7.00
2022-08-26T08:49:50.977Z,6.80
2022-08-26T08:50:51.017Z,7.00
2022-08-26T08:51:51.117Z,6.50
2022-08-26T08:52:51.225Z,6.40
2022-08-26T08:53:51.341Z,6.90
2022-08-26T08:54:51.395Z,6.90
2022-08-26T08:55:51.498Z,5.90
2022-08-26T08:56:51.680Z,6.90
2022-08-26T08:57:53.706Z,6.70
2022-08-26T08:58:51.835Z,6.80
2022-08-26T08:59:51.941Z,6.50
2022-08-26T09:00:52.114Z,6.30
2022-08-26T09:01:52.252Z,6.30
2022-08-26T09:02:52.229Z,6.50
2022-08-26T09:03:52.357Z,6.00
2022-08-26T09:04:52.488Z,6.60
2022-08-26T09:05:52.580Z,6.10
2022-08-26T09:06:52.794Z,6.80
2022-08-26T09:07:52.898Z,6.90
2022-08-26T09:08:53.047Z,6.60
2022-08-26T09:09:53.092Z,5.90
2022-08-26T09:10:53.990Z,6.80
2022-08-26T09:11:53.345Z,6.40
2022-08-26T09:12:53.486Z,6.60
2022-08-26T09:13:53.655Z,6.70
2022-08-26T09:14:53.680Z,7.10
2022-08-26T09:15:53.776Z,6.60
2022-08-26T09:16:53.917Z,6.40
2022-08-26T09:17:53.910Z,6.50
2022-08-26T09:18:54.052Z,6.80
2022-08-26T09:19:54.171Z,6.20
2022-08-26T09:20:54.298Z,6.80
2022-08-26T09:21:54.464Z,6.10
2022-08-26T09:22:54.545Z,6.50
2022-08-26T09:23:54.675Z,7.10
2022-08-26T09:24:54.794Z,6.50
2022-08-26T09:26:54.978Z,6.80
2022-08-26T09:27:55.083Z,7.20
2022-08-26T09:28:55.180Z,6.70
2022-08-26T09:29:55.227Z,7.00
2022-08-26T09:30:55.413Z,6.30
2022-08-26T09:31:55.489Z,6.80
2022-08-26T09:32:55.976Z,7.40
2022-08-26T09:33:55.630Z,6.70
2022-08-26T09:34:55.765Z,6.40
2022-08-26T09:35:55.879Z,7.30
2022-08-26T09:36:55.989Z,6.80
2022-08-26T09:37:56.102Z,7.60
2022-08-26T09:38:56.229Z,7.10
2022-08-26T09:39:56.355Z,6.50
2022-08-26T09:40:59.415Z,6.80
2022-08-26T09:41:56.580Z,6.70
2022-08-26T09:42:56.697Z,6.50
2022-08-26T09:43:56.831Z,6.80
2022-08-26T09:44:56.883Z,6.70
2022-08-26T09:45:59.471Z,7.00
2022-08-26T09:46:57.110Z,6.70
2022-08-26T09:47:57.143Z,6.70
2022-08-26T09:48:57.244Z,7.00
2022-08-26T09:49:57.331Z,6.90
2022-08-26T09:50:57.430Z,6.80
2022-08-26T09:51:57.522Z,7.40
2022-08-26T09:52:57.630Z,7.10
2022-08-26T09:53:57.744Z,6.40
2022-08-26T09:54:57.845Z,6.20
2022-08-26T09:55:57.877Z,7.10
2022-08-26T09:56:57.967Z,6.20
2022-08-26T09:58:02.259Z,6.60
2022-08-26T09:58:59.106Z,6.50
2022-08-26T09:59:58.195Z,7.10
2022-08-26T10:00:58.441Z,6.40
2022-08-26T10:01:58.448Z,7.10
2022-08-26T10:02:58.448Z,7.20
2022-08-26T10:03:58.577Z,6.50
2022-08-26T10:04:58.637Z,6.40
2022-08-26T10:05:59.648Z,6.70
2022-08-26T10:06:58.701Z,6.60
2022-08-26T10:07:59.662Z,6.90
2022-08-26T10:08:58.817Z,6.90
2022-08-26T10:09:58.857Z,6.30
2022-08-26T10:10:58.960Z,6.80
2022-08-26T10:11:59.030Z,6.60
2022-08-26T10:12:59.126Z,6.70
2022-08-26T10:13:59.152Z,6.70
2022-08-26T10:14:59.322Z,6.80
2022-08-26T10:15:59.486Z,6.70
2022-08-26T10:16:59.400Z,6.90
2022-08-26T10:17:59.394Z,6.80
2022-08-26T10:19:00.299Z,6.70
2022-08-26T10:19:59.586Z,7.20
2022-08-26T10:20:59.648Z,7.20
2022-08-26T10:21:59.742Z,7.10
2022-08-26T10:22:59.927Z,7.10
2022-08-26T10:23:59.886Z,6.60
2022-08-26T10:24:59.983Z,6.60
2022-08-26T10:26:00.068Z,6.90
2022-08-26T10:27:07.142Z,6.80
2022-08-26T10:28:00.194Z,6.70
2022-08-26T10:29:00.260Z,6.10
2022-08-26T10:30:00.320Z,6.30
2022-08-26T10:31:00.384Z,6.80
2022-08-26T10:32:03.436Z,6.50
2022-08-26T10:33:00.551Z,6.80
2022-08-26T10:34:00.832Z,6.80
2022-08-26T10:35:00.675Z,6.50
2022-08-26T10:36:00.742Z,6.50
2022-08-26T10:37:13.646Z,6.50
2022-08-26T10:38:01.896Z,7.40
2022-08-26T10:39:01.002Z,6.90
2022-08-26T10:40:01.156Z,7.00
2022-08-26T10:41:01.130Z,6.40
2022-08-26T10:42:01.221Z,6.30
2022-08-26T10:43:01.299Z,6.60
2022-08-26T10:44:02.995Z,6.80
2022-08-26T10:45:02.268Z,7.20
2022-08-26T10:46:01.620Z,7.00
2022-08-26T10:47:01.585Z,6.80
2022-08-26T10:48:01.751Z,6.60
2022-08-26T10:49:03.333Z,6.90
2022-08-26T10:50:03.218Z,6.70
2022-08-26T10:51:02.105Z,7.00
2022-08-26T10:52:02.220Z,7.10
2022-08-26T10:53:02.346Z,6.40
2022-08-26T10:54:02.464Z,6.90
2022-08-26T10:55:03.139Z,6.90
2022-08-26T10:56:02.736Z,7.40
2022-08-26T10:57:02.828Z,6.40
2022-08-26T10:58:05.015Z,7.50
2022-08-26T10:59:03.127Z,6.90
2022-08-26T11:00:04.321Z,7.60
2022-08-26T11:01:10.203Z,7.30
2022-08-26T11:02:04.446Z,7.10
2022-08-26T11:03:03.577Z,6.60
2022-08-26T11:04:03.733Z,6.70
2022-08-26T11:05:03.858Z,6.90
2022-08-26T11:06:03.989Z,7.00
2022-08-26T11:07:04.066Z,7.10
2022-08-26T11:08:04.134Z,6.70
2022-08-26T11:09:04.279Z,6.60
2022-08-26T11:10:04.367Z,6.90
2022-08-26T11:11:04.464Z,6.90
2022-08-26T11:12:10.237Z,7.50
2022-08-26T11:13:05.725Z,7.50
2022-08-26T11:14:04.769Z,6.30
2022-08-26T11:15:05.237Z,7.60
2022-08-26T11:16:05.410Z,6.80
2022-08-26T11:17:05.189Z,7.40
2022-08-26T11:18:05.230Z,7.20
2022-08-26T11:19:05.355Z,6.80
2022-08-26T11:20:09.527Z,7.10
2022-08-26T11:21:06.579Z,7.10
2022-08-26T11:22:05.674Z,7.30
2022-08-26T11:23:05.809Z,6.90
2022-08-26T11:24:05.928Z,7.00
2022-08-26T11:25:06.097Z,7.00
2022-08-26T11:26:06.242Z,7.00
2022-08-26T11:27:06.378Z,7.00
2022-08-26T11:28:06.554Z,7.10
2022-08-26T11:29:12.828Z,6.80
2022-08-26T11:30:07.774Z,6.90
2022-08-26T11:31:06.925Z,6.90
2022-08-26T11:32:07.007Z,7.00
2022-08-26T11:33:07.157Z,7.00
2022-08-26T11:34:07.265Z,7.00
2022-08-26T11:35:07.367Z,7.40
2022-08-26T11:36:07.533Z,7.30
2022-08-26T11:37:08.683Z,7.40
2022-08-26T11:38:08.003Z,7.30
2022-08-26T11:39:07.970Z,6.80
2022-08-26T11:40:08.231Z,7.30
2022-08-26T11:41:08.340Z,7.10
2022-08-26T11:42:08.494Z,7.10
2022-08-26T11:43:08.657Z,7.10
2022-08-26T11:44:08.823Z,6.90
2022-08-26T11:45:08.979Z,7.50
2022-08-26T11:46:09.329Z,6.70
2022-08-26T11:47:11.576Z,7.20
2022-08-26T11:48:09.575Z,6.90
2022-08-26T11:49:09.651Z,6.30
2022-08-26T11:50:09.798Z,4.10
2022-08-26T11:51:09.961Z,3.50
2022-08-26T11:52:10.123Z,3.50
2022-08-26T11:53:10.300Z,3.20
2022-08-26T11:54:10.504Z,3.20
2022-08-26T11:55:10.682Z,3.00
2022-08-26T11:56:10.854Z,3.00
2022-08-26T11:57:11.923Z,3.10
2022-08-26T11:58:11.221Z,3.50
2022-08-26T11:59:11.396Z,3.40
2022-08-26T12:00:13.552Z,3.20
2022-08-26T12:01:11.750Z,3.30
2022-08-26T12:02:11.931Z,3.20
2022-08-26T12:03:12.387Z,3.00
2022-08-26T12:04:12.351Z,3.30
2022-08-26T12:05:12.432Z,3.30
2022-08-26T12:06:14.144Z,3.50
2022-08-26T12:07:12.803Z,3.20
2022-08-26T12:08:13.002Z,3.20
2022-08-26T12:09:13.171Z,3.20
2022-08-26T12:10:13.363Z,3.30
2022-08-26T12:11:13.553Z,3.60
2022-08-26T12:12:13.749Z,3.50
2022-08-26T12:13:13.937Z,3.30
2022-08-26T12:14:14.123Z,3.20
2022-08-26T12:15:14.322Z,3.10
2022-08-26T12:16:14.554Z,3.50
2022-08-26T12:17:14.684Z,3.30
2022-08-26T12:18:14.890Z,3.20
2022-08-26T12:19:15.115Z,3.30
2022-08-26T12:20:15.297Z,3.10
2022-08-26T12:21:15.490Z,3.20
2022-08-26T12:22:15.713Z,3.00
2022-08-26T12:23:15.909Z,3.20
2022-08-26T12:24:16.113Z,3.10
2022-08-26T12:25:16.223Z,3.20
2022-08-26T12:26:16.434Z,4.00
2022-08-26T12:27:16.678Z,3.30
2022-08-26T12:28:17.567Z,3.50
2022-08-26T12:29:26.551Z,3.50
2022-08-26T12:30:19.285Z,3.30
2022-08-26T12:31:17.540Z,3.70
2022-08-26T12:32:17.633Z,3.40
2022-08-26T12:33:22.935Z,3.30
2022-08-26T12:34:19.008Z,3.30
2022-08-26T12:35:18.215Z,3.20
2022-08-26T12:36:18.450Z,3.30
2022-08-26T12:37:18.869Z,4.20
2022-08-26T12:38:18.889Z,3.20
2022-08-26T12:39:19.125Z,4.00
2022-08-26T12:40:19.398Z,3.60
2022-08-26T12:41:19.542Z,3.50
2022-08-26T12:42:19.654Z,3.80
2022-08-26T12:43:19.838Z,4.30
2022-08-26T12:44:19.991Z,3.70
2022-08-26T12:45:20.274Z,3.50
2022-08-26T12:46:20.374Z,3.90
2022-08-26T12:47:23.377Z,4.40
2022-08-26T12:48:21.790Z,4.20
2022-08-26T12:49:21.003Z,5.10
2022-08-26T12:50:21.279Z,4.90
2022-08-26T12:51:21.461Z,5.00
2022-08-26T12:52:21.603Z,4.80
2022-08-26T12:53:21.724Z,4.50
2022-08-26T12:54:21.973Z,4.40
2022-08-26T12:55:22.184Z,4.30
2022-08-26T12:56:22.447Z,4.10
2022-08-26T12:57:22.552Z,4.10
2022-08-26T12:58:22.785Z,4.10
2022-08-26T12:59:23.028Z,3.80
2022-08-26T13:00:28.413Z,3.90
2022-08-26T13:01:24.560Z,4.30
2022-08-26T13:02:23.653Z,4.20
2022-08-26T13:03:23.801Z,4.30
2022-08-26T13:04:23.954Z,4.00
2022-08-26T13:05:24.191Z,4.70
2022-08-26T13:06:24.448Z,4.70
2022-08-26T13:07:24.678Z,4.50
2022-08-26T13:08:24.900Z,4.20
2022-08-26T13:09:25.132Z,5.00
2022-08-26T13:10:29.153Z,4.70
2022-08-26T13:11:26.552Z,4.50
2022-08-26T13:12:25.770Z,5.20
2022-08-26T13:13:26.002Z,5.10
2022-08-26T13:14:26.272Z,5.10
2022-08-26T13:15:26.531Z,5.50
2022-08-26T13:16:26.840Z,5.90